Time;durP1;ratioP1;P1;durP2;ratioP2;P2;SDS_P1;SDS_P2;PMS_P1;PMS_P2;Temp;Humidity;BMP_temperature;BMP_pressure;BME280_temperature;BME280_humidity;BME280_pressure;Samples;Min_cycle;Max_cycle;Signal;HPM_P1;HPM_P2
2022/09/09 00:01:17;;;;;;;;;;;15.10;99.90;;;;;;5060765;28;19928;-82
2022/09/09 00:03:48;;;;;;;;;;;15.10;99.90;;;;;;5061190;28;19928;-82
2022/09/09 00:06:19;;;;;;;;;;;15.10;99.90;;;;;;5062909;28;19931;-82
2022/09/09 00:08:54;;;;;;;;;;;15.10;99.90;;;;;;5059793;28;19947;-82
2022/09/09 00:11:27;;;;;;;;;;;15.10;99.90;;;;;;5077725;28;19959;-80
2022/09/09 00:13:55;;;;;;;;;;;15.10;99.90;;;;;;5066615;28;19932;-80
2022/09/09 00:16:25;;;;;;;;;;;15.10;99.90;;;;;;5076265;28;20663;-80
2022/09/09 00:18:57;;;;;;;;;;;15.10;99.90;;;;;;5079621;28;19936;-81
2022/09/09 00:21:27;;;;;;;;;;;15.10;99.90;;;;;;5055875;28;19932;-81
2022/09/09 00:23:55;;;;;;;;;;;15.10;99.90;;;;;;5056017;28;19939;-81
2022/09/09 00:26:30;;;;;;;;;;;15.10;99.90;;;;;;5073402;28;19928;-81
2022/09/09 00:29:01;;;;;;;;;;;15.10;99.90;;;;;;5063733;28;20399;-81
2022/09/09 00:31:30;;;;;;;;;;;15.10;99.90;;;;;;5074699;28;19928;-81
2022/09/09 00:34:02;;;;;;;;;;;15.10;99.90;;;;;;5075513;28;19963;-81
2022/09/09 00:36:32;;;;;;;;;;;15.10;99.90;;;;;;5064044;28;19962;-81
2022/09/09 00:39:00;;;;;;;;;;;15.10;99.90;;;;;;5063675;28;19931;-82
2022/09/09 00:41:36;;;;;;;;;;;15.10;99.90;;;;;;5084801;28;19943;-81
2022/09/09 00:44:13;;;;;;;;;;;15.10;99.90;;;;;;5071855;28;19947;-82
2022/09/09 00:46:49;;;;;;;;;;;15.10;99.90;;;;;;5088131;28;19981;-80
2022/09/09 00:49:24;;;;;;;;;;;15.10;99.90;;;;;;5071640;28;20251;-80
2022/09/09 00:51:59;;;;;;;;;;;15.10;99.90;;;;;;5069919;28;19956;-80
2022/09/09 00:54:29;;;;;;;;;;;15.10;99.90;;;;;;5066651;28;19934;-81
2022/09/09 00:57:06;;;;;;;;;;;15.10;99.90;;;;;;5075653;28;19950;-77
2022/09/09 00:59:40;;;;;;;;;;;15.10;99.90;;;;;;5052846;28;19928;-77
2022/09/09 01:02:13;;;;;;;;;;;15.10;99.90;;;;;;5054290;28;20304;-77
2022/09/09 01:04:42;;;;;;;;;;;15.10;99.90;;;;;;5054708;28;19995;-77
2022/09/09 01:07:14;;;;;;;;;;;15.10;99.90;;;;;;5057093;28;19929;-77
2022/09/09 01:09:47;;;;;;;;;;;15.10;99.90;;;;;;5061334;28;19924;-77
2022/09/09 01:12:16;;;;;;;;;;;15.00;99.90;;;;;;5069583;28;20053;-77
2022/09/09 01:14:48;;;;;;;;;;;15.00;99.90;;;;;;5063054;28;20412;-77
2022/09/09 01:17:19;;;;;;;;;;;14.90;99.90;;;;;;5053570;28;20032;-77
2022/09/09 01:20:04;;;;;;;;;;;14.80;99.90;;;;;;5054734;28;19928;-78
2022/09/09 01:22:38;;;;;;;;;;;14.80;99.90;;;;;;5073323;28;19950;-78
2022/09/09 01:25:13;;;;;;;;;;;14.70;99.90;;;;;;5066572;28;19928;-77
2022/09/09 01:27:56;;;;;;;;;;;14.70;99.90;;;;;;5052721;28;20030;-77
2022/09/09 01:30:23;;;;;;;;;;;14.60;99.90;;;;;;5066606;28;19929;-77
2022/09/09 01:32:54;;;;;;;;;;;14.60;99.90;;;;;;5070358;28;19928;-77
2022/09/09 01:35:28;;;;;;;;;;;14.50;99.90;;;;;;5060131;28;20039;-77
2022/09/09 01:37:55;;;;;;;;;;;14.50;99.90;;;;;;5065913;28;19928;-77
2022/09/09 01:40:22;;;;;;;;;;;14.50;99.90;;;;;;5063145;28;19994;-76
2022/09/09 01:42:49;;;;;;;;;;;14.40;99.90;;;;;;5070372;28;19947;-77
2022/09/09 01:45:18;;;;;;;;;;;14.40;99.90;;;;;;5063216;28;20321;-77
2022/09/09 01:47:46;;;;;;;;;;;14.30;99.90;;;;;;5051765;28;19978;-77
2022/09/09 01:50:53;;;;;;;;;;;14.30;99.90;;;;;;5070366;28;19939;-77
2022/09/09 01:53:22;;;;;;;;;;;14.30;99.90;;;;;;5061476;28;19939;-77
2022/09/09 01:55:54;;;;;;;;;;;14.30;99.90;;;;;;5061500;28;19932;-78
2022/09/09 01:58:29;;;;;;;;;;;14.20;99.90;;;;;;5052991;28;20413;-77
2022/09/09 02:01:02;;;;;;;;;;;14.20;99.90;;;;;;5050928;28;19925;-77
2022/09/09 02:03:30;;;;;;;;;;;14.20;99.90;;;;;;5050654;28;19983;-77
2022/09/09 02:06:09;;;;;;;;;;;14.30;99.90;;;;;;5066825;28;19934;-77
2022/09/09 02:08:39;;;;;;;;;;;14.40;99.90;;;;;;5062901;28;19931;-77
2022/09/09 02:11:12;;;;;;;;;;;14.40;99.90;;;;;;5071527;28;19927;-77
2022/09/09 02:13:44;;;;;;;;;;;14.50;99.90;;;;;;5065056;28;20036;-77
2022/09/09 02:16:18;;;;;;;;;;;14.50;99.90;;;;;;5061962;28;19978;-77
2022/09/09 02:18:49;;;;;;;;;;;14.60;99.90;;;;;;5074145;28;19947;-76
2022/09/09 02:21:18;;;;;;;;;;;14.70;99.90;;;;;;5069871;28;20024;-76
2022/09/09 02:23:46;;;;;;;;;;;14.50;99.90;;;;;;5070787;28;19947;-76
2022/09/09 02:26:19;;;;;;;;;;;14.80;99.90;;;;;;5069580;28;20001;-76
2022/09/09 02:28:49;;;;;;;;;;;14.90;99.90;;;;;;5070230;28;19995;-76
2022/09/09 02:31:19;;;;;;;;;;;15.00;99.90;;;;;;5068929;28;20029;-76
2022/09/09 02:33:52;;;;;;;;;;;15.00;99.90;;;;;;5070147;28;19931;-76
2022/09/09 02:36:20;;;;;;;;;;;15.10;99.90;;;;;;5070359;28;20034;-77
2022/09/09 02:38:50;;;;;;;;;;;15.10;99.90;;;;;;5069741;28;20421;-77
2022/09/09 02:41:18;;;;;;;;;;;15.10;99.90;;;;;;5082836;28;19928;-77
2022/09/09 02:43:45;;;;;;;;;;;15.10;99.90;;;;;;5079980;28;19924;-77
2022/09/09 02:46:33;;;;;;;;;;;16.40;99.90;;;;;;5059397;28;20005;-77
2022/09/09 02:49:01;;;;;;;;;;;15.10;99.90;;;;;;5061418;28;19928;-77
2022/09/09 02:51:36;;;;;;;;;;;15.00;99.90;;;;;;5069570;28;20383;-77
2022/09/09 02:54:07;;;;;;;;;;;15.00;99.90;;;;;;5070038;28;19959;-75
2022/09/09 02:56:40;;;;;;;;;;;15.00;99.90;;;;;;5070013;28;19924;-76
2022/09/09 02:59:08;;;;;;;;;;;15.00;99.90;;;;;;5069582;28;19928;-76
2022/09/09 03:01:39;;;;;;;;;;;15.00;99.90;;;;;;5069662;28;20419;-76
2022/09/09 03:04:07;;;;;;;;;;;14.90;99.90;;;;;;5069766;28;20036;-76
2022/09/09 03:06:35;;;;;;;;;;;14.90;99.90;;;;;;5056807;28;19931;-76
2022/09/09 03:09:12;;;;;;;;;;;14.90;99.90;;;;;;5060698;28;19963;-76
2022/09/09 03:11:39;;;;;;;;;;;14.90;99.90;;;;;;5049493;28;20388;-76
2022/09/09 03:14:07;;;;;;;;;;;14.80;99.90;;;;;;5065424;28;19928;-76
2022/09/09 03:16:36;;;;;;;;;;;14.80;99.90;;;;;;5075744;28;19935;-76
2022/09/09 03:19:04;;;;;;;;;;;14.90;99.90;;;;;;5073132;28;19928;-76
2022/09/09 03:21:32;;;;;;;;;;;14.90;99.90;;;;;;5057327;28;19925;-76
2022/09/09 03:23:59;;;;;;;;;;;14.90;99.90;;;;;;5053881;28;19968;-76
2022/09/09 03:26:26;;;;;;;;;;;15.00;99.90;;;;;;5056929;28;20249;-77
2022/09/09 03:28:54;;;;;;;;;;;15.00;99.90;;;;;;5057160;28;20428;-78
2022/09/09 03:31:23;;;;;;;;;;;15.00;99.90;;;;;;5055269;28;19928;-77
2022/09/09 03:33:52;;;;;;;;;;;15.10;99.90;;;;;;5062538;28;20360;-81
2022/09/09 03:36:22;;;;;;;;;;;15.20;99.90;;;;;;5062464;28;19998;-80
2022/09/09 03:38:49;;;;;;;;;;;14.90;99.90;;;;;;5061852;28;19944;-80
2022/09/09 03:41:16;;;;;;;;;;;15.20;99.90;;;;;;5060870;28;19928;-81
2022/09/09 03:43:44;;;;;;;;;;;15.30;99.90;;;;;;5061563;28;19928;-80
2022/09/09 03:46:11;;;;;;;;;;;15.30;99.90;;;;;;5061087;28;19936;-80
2022/09/09 03:48:38;;;;;;;;;;;15.30;99.90;;;;;;5061401;28;19935;-80
2022/09/09 03:51:06;;;;;;;;;;;15.30;99.90;;;;;;5061157;28;19932;-81
2022/09/09 03:53:37;;;;;;;;;;;15.30;99.90;;;;;;5062969;28;19987;-81
2022/09/09 03:56:06;;;;;;;;;;;15.20;99.90;;;;;;5062325;28;19978;-82
2022/09/09 03:58:33;;;;;;;;;;;15.20;99.90;;;;;;5061574;28;19983;-81
2022/09/09 04:01:09;;;;;;;;;;;15.10;99.90;;;;;;5061466;28;19928;-81
2022/09/09 04:03:37;;;;;;;;;;;15.00;99.90;;;;;;5059217;28;19928;-82
2022/09/09 04:06:06;;;;;;;;;;;15.00;99.90;;;;;;5064911;28;19924;-80
2022/09/09 04:08:33;;;;;;;;;;;15.00;99.90;;;;;;5078266;28;20383;-81
2022/09/09 04:11:06;;;;;;;;;;;14.90;99.90;;;;;;5062117;28;19955;-80
2022/09/09 04:13:34;;;;;;;;;;;14.90;99.90;;;;;;5069487;28;19928;-81
2022/09/09 04:16:03;;;;;;;;;;;14.80;99.90;;;;;;5082169;28;19992;-81
2022/09/09 04:18:31;;;;;;;;;;;14.80;99.90;;;;;;5080329;28;20014;-81
2022/09/09 04:20:59;;;;;;;;;;;14.80;99.90;;;;;;5080623;28;19925;-81
2022/09/09 04:23:28;;;;;;;;;;;14.80;99.90;;;;;;5081231;28;19981;-82
2022/09/09 04:25:57;;;;;;;;;;;14.80;99.90;;;;;;5074262;22;19931;-78
2022/09/09 04:28:26;;;;;;;;;;;14.80;99.90;;;;;;5027162;28;19929;-76
2022/09/09 04:30:54;;;;;;;;;;;14.70;99.90;;;;;;5026046;28;20028;-76
2022/09/09 04:33:21;;;;;;;;;;;14.70;99.90;;;;;;5027973;28;20040;-76
2022/09/09 04:35:53;;;;;;;;;;;14.80;99.90;;;;;;5010757;28;20036;-76
2022/09/09 04:38:22;;;;;;;;;;;14.80;99.90;;;;;;5024743;28;19933;-77
2022/09/09 04:40:51;;;;;;;;;;;14.90;99.90;;;;;;5018956;28;20394;-76
2022/09/09 04:43:18;;;;;;;;;;;14.90;99.90;;;;;;5013042;28;19955;-77
2022/09/09 04:45:49;;;;;;;;;;;15.00;99.90;;;;;;5019214;28;19937;-75
2022/09/09 04:48:16;;;;;;;;;;;15.00;99.90;;;;;;5009430;28;19936;-75
2022/09/09 04:50:43;;;;;;;;;;;15.00;99.90;;;;;;5026186;28;19933;-76
2022/09/09 04:53:12;;;;;;;;;;;15.10;99.90;;;;;;5026906;28;19930;-75
2022/09/09 04:55:39;;;;;;;;;;;15.10;99.90;;;;;;5026165;28;19929;-77
2022/09/09 04:58:07;;;;;;;;;;;15.20;99.90;;;;;;5009462;28;19963;-76
2022/09/09 05:00:37;;;;;;;;;;;15.20;99.90;;;;;;5003224;28;20399;-77
2022/09/09 05:03:08;;;;;;;;;;;15.20;99.90;;;;;;5019477;28;19929;-75
2022/09/09 05:05:35;;;;;;;;;;;15.30;99.90;;;;;;4991235;28;19980;-75
2022/09/09 05:08:03;;;;;;;;;;;15.30;99.90;;;;;;5004279;28;20327;-76
2022/09/09 05:10:30;;;;;;;;;;;15.30;99.90;;;;;;5000087;28;19936;-76
2022/09/09 05:12:58;;;;;;;;;;;15.30;99.90;;;;;;5017923;28;19933;-76
2022/09/09 05:15:27;;;;;;;;;;;15.40;99.90;;;;;;5019108;28;19936;-76
2022/09/09 05:17:57;;;;;;;;;;;15.50;99.90;;;;;;5012170;28;20020;-76
2022/09/09 05:20:25;;;;;;;;;;;16.80;99.90;;;;;;5015894;28;19990;-76
2022/09/09 05:22:53;;;;;;;;;;;15.40;99.90;;;;;;5004504;28;19926;-76
2022/09/09 05:25:20;;;;;;;;;;;15.50;99.90;;;;;;4990665;28;19926;-79
2022/09/09 05:27:47;;;;;;;;;;;15.50;99.90;;;;;;4936151;28;1775660;-76
2022/09/09 05:30:15;;;;;;;;;;;15.50;99.90;;;;;;5008416;28;20473;-76
2022/09/09 05:32:42;;;;;;;;;;;15.50;99.90;;;;;;5024831;28;19952;-77
2022/09/09 05:35:09;;;;;;;;;;;16.80;99.90;;;;;;5023146;28;20013;-76
2022/09/09 05:37:38;;;;;;;;;;;15.60;99.90;;;;;;5009157;28;19930;-76
2022/09/09 05:40:05;;;;;;;;;;;15.60;99.90;;;;;;4997384;28;20314;-76
2022/09/09 05:42:32;;;;;;;;;;;15.70;99.90;;;;;;4992445;28;19929;-76
2022/09/09 05:44:59;;;;;;;;;;;15.70;99.90;;;;;;5015085;28;20390;-76
2022/09/09 05:47:27;;;;;;;;;;;15.80;99.90;;;;;;4991673;28;20110;-76
2022/09/09 05:49:55;;;;;;;;;;;15.80;99.90;;;;;;5005871;28;19932;-75
2022/09/09 05:52:23;;;;;;;;;;;15.90;99.90;;;;;;4995328;28;20358;-80
2022/09/09 05:54:51;;;;;;;;;;;16.00;99.90;;;;;;5015387;28;19930;-76
2022/09/09 05:57:19;;;;;;;;;;;16.10;99.90;;;;;;5008775;28;19932;-76
2022/09/09 05:59:46;;;;;;;;;;;16.20;99.90;;;;;;5010479;28;19926;-75
2022/09/09 06:02:13;;;;;;;;;;;16.30;99.90;;;;;;4994843;28;19938;-76
2022/09/09 06:04:40;;;;;;;;;;;16.30;99.90;;;;;;4999576;28;19953;-75
2022/09/09 06:07:06;;;;;;;;;;;16.40;99.90;;;;;;5007156;28;19929;-75
2022/09/09 06:09:33;;;;;;;;;;;16.40;99.90;;;;;;5011758;28;19929;-75
2022/09/09 06:12:01;;;;;;;;;;;16.50;99.90;;;;;;5016959;28;19972;-76
2022/09/09 06:14:30;;;;;;;;;;;16.80;99.90;;;;;;5025196;28;20354;-76
2022/09/09 06:17:00;;;;;;;;;;;16.90;99.90;;;;;;5022560;28;19936;-74
2022/09/09 06:19:30;;;;;;;;;;;17.00;99.90;;;;;;5026573;28;19960;-75
2022/09/09 06:21:59;;;;;;;;;;;17.00;99.90;;;;;;5027205;28;19926;-76
2022/09/09 06:24:29;;;;;;;;;;;17.10;99.90;;;;;;5012128;28;20099;-73
2022/09/09 06:26:57;;;;;;;;;;;17.20;99.90;;;;;;5026384;28;19941;-74
2022/09/09 06:29:29;;;;;;;;;;;17.40;99.90;;;;;;5026272;28;20019;-74
2022/09/09 06:31:56;;;;;;;;;;;17.60;99.90;;;;;;5009015;28;19936;-74
2022/09/09 06:34:24;;;;;;;;;;;17.70;99.90;;;;;;4999456;28;19936;-74
2022/09/09 06:36:57;;;;;;;;;;;17.90;99.90;;;;;;5023888;28;19926;-74
2022/09/09 06:39:24;;;;;;;;;;;18.00;99.90;;;;;;5023122;28;19929;-74
2022/09/09 06:41:52;;;;;;;;;;;18.10;99.90;;;;;;5014390;28;20386;-74
2022/09/09 06:44:50;;;;;;;;;;;18.20;99.90;;;;;;4981387;28;19937;-76
2022/09/09 06:47:27;;;;;;;;;;;18.30;99.90;;;;;;5007234;28;19957;-74
2022/09/09 06:49:54;;;;;;;;;;;18.80;99.90;;;;;;5026566;28;19964;-78
2022/09/09 06:52:20;;;;;;;;;;;19.10;99.90;;;;;;5015211;28;19930;-74
2022/09/09 06:54:47;;;;;;;;;;;19.80;99.90;;;;;;5016011;28;19931;-74
2022/09/09 06:57:16;;;;;;;;;;;20.10;99.90;;;;;;5009625;28;19930;-75
2022/09/09 06:59:43;;;;;;;;;;;20.20;99.90;;;;;;4997123;28;20383;-75
2022/09/09 07:02:11;;;;;;;;;;;20.10;99.90;;;;;;5011530;28;19929;-75
2022/09/09 07:04:38;;;;;;;;;;;20.20;99.90;;;;;;5007273;28;20028;-75
2022/09/09 07:07:04;;;;;;;;;;;20.80;99.90;;;;;;5014881;28;19937;-75
2022/09/09 07:09:31;;;;;;;;;;;21.20;99.90;;;;;;5024659;28;20406;-75
2022/09/09 07:11:59;;;;;;;;;;;21.70;99.90;;;;;;5013827;28;19929;-76
2022/09/09 07:14:26;;;;;;;;;;;22.30;99.90;;;;;;5008724;28;20394;-75
2022/09/09 07:16:57;;;;;;;;;;;22.70;99.90;;;;;;5016617;28;20032;-76
2022/09/09 07:19:26;;;;;;;;;;;23.00;99.90;;;;;;4996641;28;19936;-75
2022/09/09 07:21:54;;;;;;;;;;;23.00;99.90;;;;;;5017049;28;19929;-76
2022/09/09 07:24:23;;;;;;;;;;;22.80;99.90;;;;;;5014268;28;19930;-77
2022/09/09 07:26:51;;;;;;;;;;;22.50;99.90;;;;;;5010835;28;19960;-76
2022/09/09 07:29:18;;;;;;;;;;;22.10;99.90;;;;;;5008125;28;20028;-76
2022/09/09 07:31:45;;;;;;;;;;;21.70;99.90;;;;;;5027002;28;19929;-76
2022/09/09 07:34:16;;;;;;;;;;;21.40;99.90;;;;;;5011169;28;19952;-77
2022/09/09 07:36:45;;;;;;;;;;;21.20;99.90;;;;;;5026581;28;20313;-76
2022/09/09 07:39:13;;;;;;;;;;;21.00;99.90;;;;;;5011152;28;20449;-77
2022/09/09 07:41:45;;;;;;;;;;;20.90;99.90;;;;;;5027264;28;20349;-77
2022/09/09 07:44:14;;;;;;;;;;;20.80;99.90;;;;;;5016035;28;20025;-77
2022/09/09 07:46:44;;;;;;;;;;;20.70;99.90;;;;;;5003375;28;19935;-77
2022/09/09 07:49:12;;;;;;;;;;;20.60;99.90;;;;;;5002612;28;19930;-77
2022/09/09 07:51:40;;;;;;;;;;;20.40;99.90;;;;;;4996172;28;19933;-77
2022/09/09 07:54:09;;;;;;;;;;;20.20;99.90;;;;;;5006064;28;19930;-77
2022/09/09 07:56:38;;;;;;;;;;;20.20;99.90;;;;;;5022448;28;20031;-77
2022/09/09 07:59:07;;;;;;;;;;;20.20;99.90;;;;;;5010939;28;19926;-77
2022/09/09 08:01:38;;;;;;;;;;;20.30;99.90;;;;;;5022410;28;19929;-77
2022/09/09 08:04:06;;;;;;;;;;;20.70;99.90;;;;;;5023255;28;19937;-77
2022/09/09 08:06:36;;;;;;;;;;;20.90;99.90;;;;;;5010472;28;19929;-77
2022/09/09 08:09:03;;;;;;;;;;;21.20;99.90;;;;;;5007728;28;19937;-77
2022/09/09 08:11:33;;;;;;;;;;;21.30;99.90;;;;;;5024706;28;19925;-77
2022/09/09 08:14:01;;;;;;;;;;;21.30;99.90;;;;;;5010743;28;19925;-77
2022/09/09 08:16:29;;;;;;;;;;;21.20;99.90;;;;;;5024843;28;19976;-77
2022/09/09 08:18:57;;;;;;;;;;;21.20;99.90;;;;;;5012414;28;20013;-77
2022/09/09 08:21:26;;;;;;;;;;;21.20;99.90;;;;;;4991601;28;19961;-77
2022/09/09 08:23:54;;;;;;;;;;;21.50;99.90;;;;;;5013979;28;19926;-77
2022/09/09 08:26:23;;;;;;;;;;;22.00;99.90;;;;;;5018003;28;19937;-77
2022/09/09 08:28:52;;;;;;;;;;;22.30;99.90;;;;;;5021439;28;19925;-77
2022/09/09 08:31:20;;;;;;;;;;;22.60;99.90;;;;;;5005779;28;19969;-77
2022/09/09 08:33:48;;;;;;;;;;;22.90;99.90;;;;;;5019849;28;19952;-77
2022/09/09 08:36:16;;;;;;;;;;;23.00;99.90;;;;;;5000444;28;20103;-77
2022/09/09 08:38:43;;;;;;;;;;;23.00;99.90;;;;;;5017035;28;20006;-77
2022/09/09 08:41:31;;;;;;;;;;;23.00;99.90;;;;;;5014112;28;19960;-77
2022/09/09 08:44:07;;;;;;;;;;;23.10;99.90;;;;;;4992558;28;19933;-77
2022/09/09 08:46:37;;;;;;;;;;;23.20;99.90;;;;;;5018994;28;19926;-77
2022/09/09 08:49:13;;;;;;;;;;;23.20;99.90;;;;;;5009863;28;19960;-77
2022/09/09 08:51:40;;;;;;;;;;;23.20;99.90;;;;;;5014725;28;19926;-77
2022/09/09 08:54:06;;;;;;;;;;;23.20;99.90;;;;;;5018191;28;20314;-77
2022/09/09 08:56:34;;;;;;;;;;;23.00;99.90;;;;;;5010716;28;19993;-77
2022/09/09 08:59:05;;;;;;;;;;;23.00;99.90;;;;;;4989533;28;20039;-77
2022/09/09 09:01:49;;;;;;;;;;;23.00;99.90;;;;;;4989749;28;19937;-77
2022/09/09 09:04:39;;;;;;;;;;;23.20;99.90;;;;;;4989361;28;19936;-76
2022/09/09 09:07:12;;;;;;;;;;;23.40;99.90;;;;;;5004881;28;20361;-76
2022/09/09 09:09:41;;;;;;;;;;;23.30;99.90;;;;;;5008639;28;19929;-76
2022/09/09 09:12:12;;;;;;;;;;;24.50;99.90;;;;;;5001891;28;20395;-75
2022/09/09 09:14:41;;;;;;;;;;;23.00;99.90;;;;;;5008464;28;19925;-75
2022/09/09 09:17:13;;;;;;;;;;;22.80;99.90;;;;;;5002186;28;20391;-76
2022/09/09 09:19:41;;;;;;;;;;;23.20;99.90;;;;;;5013752;28;19975;-75
2022/09/09 09:22:16;;;;;;;;;;;22.40;99.90;;;;;;5016880;28;20137;-76
2022/09/09 09:24:45;;;;;;;;;;;22.40;99.90;;;;;;5009722;28;20348;-76
2022/09/09 09:27:13;;;;;;;;;;;22.60;99.90;;;;;;5009213;28;20214;-75
2022/09/09 09:29:44;;;;;;;;;;;22.80;99.90;;;;;;5013733;28;19975;-75
2022/09/09 09:32:12;;;;;;;;;;;22.90;99.90;;;;;;4993436;28;20124;-76
2022/09/09 09:34:39;;;;;;;;;;;22.80;99.90;;;;;;5007636;28;20374;-76
2022/09/09 09:37:13;;;;;;;;;;;22.60;99.90;;;;;;5000223;28;19936;-75
2022/09/09 09:39:39;;;;;;;;;;;22.30;99.90;;;;;;5004731;28;19984;-75
2022/09/09 09:42:10;;;;;;;;;;;22.00;99.90;;;;;;5024375;28;19936;-75
2022/09/09 09:44:37;;;;;;;;;;;21.90;99.90;;;;;;5020058;28;19929;-75
2022/09/09 09:47:14;;;;;;;;;;;21.90;99.90;;;;;;5016525;28;19965;-75
2022/09/09 09:49:52;;;;;;;;;;;22.00;99.90;;;;;;5001204;28;19929;-75
2022/09/09 09:52:22;;;;;;;;;;;22.00;99.90;;;;;;5018115;28;20447;-75
2022/09/09 09:54:49;;;;;;;;;;;22.10;99.90;;;;;;4999909;28;19926;-76
2022/09/09 09:57:17;;;;;;;;;;;22.20;99.90;;;;;;5018118;28;19936;-76
2022/09/09 09:59:46;;;;;;;;;;;22.20;99.90;;;;;;5016993;28;19934;-76
2022/09/09 10:02:26;;;;;;;;;;;22.80;99.90;;;;;;5015390;28;19930;-77
2022/09/09 10:05:04;;;;;;;;;;;23.10;99.90;;;;;;5011949;28;20447;-76
2022/09/09 10:07:33;;;;;;;;;;;23.50;99.90;;;;;;5000271;28;20338;-76
2022/09/09 10:10:00;;;;;;;;;;;23.70;99.90;;;;;;5001503;28;19930;-75
2022/09/09 10:12:37;;;;;;;;;;;23.60;99.90;;;;;;5021801;28;20314;-76
2022/09/09 10:15:08;;;;;;;;;;;24.00;99.90;;;;;;5001382;28;19937;-76
2022/09/09 10:17:42;;;;;;;;;;;23.60;99.90;;;;;;4996436;28;20481;-76
2022/09/09 10:20:19;;;;;;;;;;;23.70;99.90;;;;;;4999776;28;20012;-76
2022/09/09 10:22:48;;;;;;;;;;;23.80;99.90;;;;;;4990724;28;19933;-76
2022/09/09 10:25:32;;;;;;;;;;;24.10;99.90;;;;;;4992484;28;20314;-77
2022/09/09 10:28:09;;;;;;;;;;;23.90;99.90;;;;;;4998827;28;19933;-77
2022/09/09 10:30:40;;;;;;;;;;;23.80;99.90;;;;;;5000877;28;20315;-77
2022/09/09 10:33:11;;;;;;;;;;;23.70;99.90;;;;;;4993298;28;19936;-77
2022/09/09 10:35:42;;;;;;;;;;;23.50;99.90;;;;;;5009082;28;19926;-77
2022/09/09 10:38:16;;;;;;;;;;;23.40;99.90;;;;;;5006332;28;19930;-77
2022/09/09 10:40:45;;;;;;;;;;;23.20;99.90;;;;;;4996805;28;20435;-74
2022/09/09 10:43:16;;;;;;;;;;;23.00;99.90;;;;;;5023482;28;20159;-75
2022/09/09 10:45:50;;;;;;;;;;;23.80;99.90;;;;;;5002840;28;19930;-75
2022/09/09 10:48:27;;;;;;;;;;;21.70;99.90;;;;;;4990191;28;19941;-76
2022/09/09 10:50:57;;;;;;;;;;;22.00;99.90;;;;;;4998338;28;20629;-76
2022/09/09 10:53:29;;;;;;;;;;;21.90;99.90;;;;;;4998769;28;19929;-76
2022/09/09 10:55:59;;;;;;;;;;;21.90;99.90;;;;;;5003105;28;19933;-76
2022/09/09 10:58:29;;;;;;;;;;;22.40;99.90;;;;;;4999877;28;20004;-76
2022/09/09 11:00:59;;;;;;;;;;;22.20;99.90;;;;;;5006864;28;20387;-76
2022/09/09 11:03:30;;;;;;;;;;;22.70;99.90;;;;;;5003660;28;20311;-76
2022/09/09 11:05:58;;;;;;;;;;;22.70;99.90;;;;;;5002329;28;19929;-77
2022/09/09 11:08:26;;;;;;;;;;;23.10;99.90;;;;;;5002153;28;19933;-76
2022/09/09 11:10:58;;;;;;;;;;;23.30;99.90;;;;;;5006465;28;19971;-76
2022/09/09 11:13:25;;;;;;;;;;;;;;;;;;5003833;28;19937;-75
2022/09/09 11:15:54;;;;;;;;;;;23.50;99.90;;;;;;5013969;28;20141;-76
2022/09/09 11:18:22;;;;;;;;;;;23.40;99.90;;;;;;5007511;28;19933;-76
2022/09/09 11:20:54;;;;;;;;;;;23.20;99.90;;;;;;5005305;28;20040;-76
2022/09/09 11:23:28;;;;;;;;;;;23.10;99.90;;;;;;5005773;28;19933;-77
2022/09/09 11:25:56;;;;;;;;;;;22.90;99.90;;;;;;5005556;28;19929;-75
2022/09/09 11:28:30;;;;;;;;;;;22.80;99.90;;;;;;5001906;28;19945;-76
2022/09/09 11:31:03;;;;;;;;;;;22.80;99.90;;;;;;4999314;28;19977;-77
2022/09/09 11:33:40;;;;;;;;;;;23.30;99.90;;;;;;5005175;28;19941;-76
2022/09/09 11:36:17;;;;;;;;;;;22.30;99.90;;;;;;5002609;28;20042;-77
2022/09/09 11:38:46;;;;;;;;;;;23.50;99.90;;;;;;5003574;28;19934;-77
2022/09/09 11:41:13;;;;;;;;;;;24.50;99.90;;;;;;5007151;28;19963;-76
2022/09/09 11:43:41;;;;;;;;;;;23.80;99.90;;;;;;5007114;28;20371;-76
2022/09/09 11:46:09;;;;;;;;;;;23.80;99.90;;;;;;5001200;28;20024;-77
2022/09/09 11:48:36;;;;;;;;;;;23.60;99.90;;;;;;5000990;28;20437;-76
2022/09/09 11:51:07;;;;;;;;;;;23.70;99.90;;;;;;5010759;28;20016;-77
2022/09/09 11:53:36;;;;;;;;;;;23.50;99.90;;;;;;5011042;28;19929;-76
2022/09/09 11:56:04;;;;;;;;;;;23.50;99.90;;;;;;5009852;28;19926;-76
2022/09/09 11:58:34;;;;;;;;;;;23.60;99.90;;;;;;5010999;28;19925;-76
2022/09/09 12:01:01;;;;;;;;;;;23.80;99.90;;;;;;5010313;28;19929;-77
2022/09/09 12:03:39;;;;;;;;;;;24.00;99.90;;;;;;5007200;28;20450;-77
2022/09/09 12:06:11;;;;;;;;;;;24.00;99.90;;;;;;4998789;28;20457;-76
2022/09/09 12:08:42;;;;;;;;;;;23.90;99.90;;;;;;4997005;28;20298;-76
2022/09/09 12:11:08;;;;;;;;;;;23.80;99.90;;;;;;4993582;28;20354;-77
2022/09/09 12:13:36;;;;;;;;;;;23.50;99.90;;;;;;5006993;28;19930;-77
2022/09/09 12:16:05;;;;;;;;;;;23.50;99.90;;;;;;4995992;28;20012;-77
2022/09/09 12:18:33;;;;;;;;;;;23.30;99.90;;;;;;4999050;28;19925;-77
2022/09/09 12:21:04;;;;;;;;;;;23.20;99.90;;;;;;5006409;28;19929;-77
2022/09/09 12:23:35;;;;;;;;;;;23.40;99.90;;;;;;5025028;28;20390;-77
2022/09/09 12:26:08;;;;;;;;;;;23.40;99.90;;;;;;5010332;28;19987;-76
2022/09/09 12:28:42;;;;;;;;;;;23.60;99.90;;;;;;5010684;28;19937;-77
2022/09/09 12:31:13;;;;;;;;;;;23.50;99.90;;;;;;5024344;28;19937;-77
2022/09/09 12:33:42;;;;;;;;;;;23.20;99.90;;;;;;5011304;28;19931;-77
2022/09/09 12:36:12;;;;;;;;;;;23.20;99.90;;;;;;5010021;28;19959;-77
2022/09/09 12:38:40;;;;;;;;;;;23.00;99.90;;;;;;5007749;28;19984;-77
2022/09/09 12:41:19;;;;;;;;;;;22.70;99.90;;;;;;4999937;28;19937;-76
2022/09/09 12:43:46;;;;;;;;;;;22.40;99.90;;;;;;5004499;28;19933;-75
2022/09/09 12:46:16;;;;;;;;;;;21.90;99.90;;;;;;4994742;28;19930;-75
2022/09/09 12:48:43;;;;;;;;;;;21.40;99.90;;;;;;4999485;28;19947;-79
2022/09/09 12:51:18;;;;;;;;;;;20.90;99.90;;;;;;4996600;28;19926;-78
2022/09/09 12:53:45;;;;;;;;;;;20.10;99.90;;;;;;4991480;28;19929;-79
2022/09/09 12:56:20;;;;;;;;;;;20.10;99.90;;;;;;4990326;28;20187;-79
2022/09/09 12:58:49;;;;;;;;;;;19.90;99.90;;;;;;4993234;28;19961;-78
2022/09/09 13:01:21;;;;;;;;;;;19.60;99.90;;;;;;5009174;28;19929;-79
2022/09/09 13:03:48;;;;;;;;;;;19.50;99.90;;;;;;5007109;28;19933;-78
2022/09/09 13:06:22;;;;;;;;;;;19.20;99.90;;;;;;5004629;28;20416;-78
2022/09/09 13:08:49;;;;;;;;;;;19.00;99.90;;;;;;5003225;28;20012;-79
2022/09/09 13:11:18;;;;;;;;;;;18.90;99.90;;;;;;4995946;28;19936;-79
2022/09/09 13:13:51;;;;;;;;;;;19.00;99.90;;;;;;4998541;28;21462;-79
2022/09/09 13:16:22;;;;;;;;;;;19.10;99.90;;;;;;4998115;28;20318;-80
2022/09/09 13:18:49;;;;;;;;;;;19.20;99.90;;;;;;5008208;28;20406;-80
2022/09/09 13:21:16;;;;;;;;;;;19.30;99.90;;;;;;5005204;28;19934;-79
2022/09/09 13:23:49;;;;;;;;;;;19.80;99.90;;;;;;5004083;28;20009;-79
2022/09/09 13:26:23;;;;;;;;;;;19.90;99.90;;;;;;5000777;28;19936;-79
2022/09/09 13:28:52;;;;;;;;;;;20.30;99.90;;;;;;4992443;28;19984;-79
2022/09/09 13:31:21;;;;;;;;;;;20.70;99.90;;;;;;4997953;28;20241;-80
2022/09/09 13:33:48;;;;;;;;;;;21.00;99.90;;;;;;5000991;28;19992;-80
2022/09/09 13:36:14;;;;;;;;;;;21.10;99.90;;;;;;4998341;28;19936;-80
2022/09/09 13:38:53;;;;;;;;;;;21.20;99.90;;;;;;5000975;28;20084;-79
2022/09/09 13:41:21;;;;;;;;;;;21.40;99.90;;;;;;5000876;28;19969;-79
2022/09/09 13:43:48;;;;;;;;;;;21.50;99.90;;;;;;4997345;28;20000;-76
2022/09/09 13:46:33;;;;;;;;;;;21.70;99.90;;;;;;5003541;28;19926;-80
2022/09/09 13:49:01;;;;;;;;;;;21.90;99.90;;;;;;4997757;28;20142;-80
2022/09/09 13:51:34;;;;;;;;;;;22.00;99.90;;;;;;5016036;28;19930;-80
2022/09/09 13:54:01;;;;;;;;;;;22.30;99.90;;;;;;5003651;28;20447;-79
2022/09/09 13:56:28;;;;;;;;;;;22.10;99.90;;;;;;5001030;28;20024;-80
2022/09/09 13:58:54;;;;;;;;;;;22.40;99.90;;;;;;5002702;28;19981;-80
2022/09/09 14:01:21;;;;;;;;;;;22.60;99.90;;;;;;5009410;28;19944;-79
2022/09/09 14:03:50;;;;;;;;;;;23.00;99.90;;;;;;4997535;28;20000;-78
2022/09/09 14:06:18;;;;;;;;;;;23.20;99.90;;;;;;4998749;28;20284;-79
2022/09/09 14:08:45;;;;;;;;;;;23.30;99.90;;;;;;4996613;28;19938;-79
2022/09/09 14:11:13;;;;;;;;;;;23.40;99.90;;;;;;4990491;28;20352;-79
2022/09/09 14:13:40;;;;;;;;;;;23.70;99.90;;;;;;4999223;28;19930;-79
2022/09/09 14:16:07;;;;;;;;;;;23.70;99.90;;;;;;5002842;28;19940;-79
2022/09/09 14:18:34;;;;;;;;;;;23.90;99.90;;;;;;5009995;28;20331;-80
2022/09/09 14:21:02;;;;;;;;;;;23.90;99.90;;;;;;5010156;28;20028;-79
2022/09/09 14:23:29;;;;;;;;;;;23.80;99.90;;;;;;4990409;28;20302;-79
2022/09/09 14:25:56;;;;;;;;;;;23.80;99.90;;;;;;5001501;28;19929;-79
2022/09/09 14:28:23;;;;;;;;;;;23.80;99.90;;;;;;5009402;28;20272;-80
2022/09/09 14:30:49;;;;;;;;;;;23.70;99.90;;;;;;5006278;28;20035;-79
2022/09/09 14:33:17;;;;;;;;;;;23.60;99.90;;;;;;5001190;28;19929;-79